createdAt,value
2022-09-06T00:01:09.196Z,67.08
2022-09-06T00:03:36.871Z,66.91
2022-09-06T00:06:13.002Z,65.61
2022-09-06T00:08:41.013Z,65.42
2022-09-06T00:11:08.410Z,65.76
2022-09-06T00:13:36.473Z,65.44
2022-09-06T00:16:13.341Z,64.11
2022-09-06T00:18:41.160Z,63.54
2022-09-06T00:21:20.350Z,63.20
2022-09-06T00:23:47.941Z,62.91
2022-09-06T00:26:15.743Z,62.37
2022-09-06T00:28:43.308Z,64.20
2022-09-06T00:31:22.539Z,66.55
2022-09-06T00:33:50.334Z,70.34
2022-09-06T00:36:18.157Z,70.19
2022-09-06T00:38:45.599Z,70.64
2022-09-06T00:41:15.283Z,67.11
2022-09-06T00:43:42.914Z,66.48
2022-09-06T00:46:17.224Z,66.97
2022-09-06T00:48:44.882Z,64.47
2022-09-06T00:51:13.391Z,66.38
2022-09-06T00:53:41.635Z,64.56
2022-09-06T00:56:09.547Z,66.12
2022-09-06T00:58:37.249Z,65.30
2022-09-06T01:01:05.335Z,63.87
2022-09-06T01:03:33.074Z,65.32
2022-09-06T01:06:15.683Z,66.23
2022-09-06T01:09:27.910Z,67.47
2022-09-06T01:12:16.925Z,65.67
2022-09-06T01:15:11.235Z,67.58
2022-09-06T01:17:38.520Z,74.17
2022-09-06T01:20:21.174Z,71.52
2022-09-06T01:23:04.785Z,68.94
2022-09-06T01:26:12.854Z,67.75
2022-09-06T01:28:43.918Z,64.54
2022-09-06T01:31:25.767Z,65.64
2022-09-06T01:34:05.646Z,66.92
2022-09-06T01:36:45.812Z,69.68
2022-09-06T01:39:28.024Z,70.14
2022-09-06T01:41:56.751Z,68.05
2022-09-06T01:44:25.579Z,67.36
2022-09-06T01:47:00.070Z,66.90
2022-09-06T01:49:27.608Z,71.90
2022-09-06T01:52:18.291Z,73.66
2022-09-06T01:54:56.959Z,72.29
2022-09-06T01:57:49.175Z,69.27
2022-09-06T02:00:22.579Z,67.31
2022-09-06T02:03:21.485Z,66.67
2022-09-06T02:05:51.765Z,67.52
2022-09-06T02:08:24.029Z,72.41
2022-09-06T02:11:01.036Z,69.82
2022-09-06T02:13:40.500Z,67.74
2022-09-06T02:16:08.767Z,66.06
2022-09-06T02:18:48.254Z,64.80
2022-09-06T02:21:17.074Z,63.90
2022-09-06T02:23:45.048Z,64.81
2022-09-06T02:26:24.682Z,64.20
2022-09-06T02:28:52.392Z,64.95
2022-09-06T02:31:22.157Z,65.58
2022-09-06T02:33:50.692Z,67.16
2022-09-06T02:36:18.809Z,68.43
2022-09-06T02:38:46.424Z,70.89
2022-09-06T02:41:24.209Z,72.18
2022-09-06T02:43:51.899Z,75.85
2022-09-06T02:46:19.549Z,76.49
2022-09-06T02:48:47.011Z,76.57
2022-09-06T02:51:14.712Z,75.35
2022-09-06T02:53:42.311Z,71.66
2022-09-06T02:56:10.008Z,70.43
2022-09-06T02:58:37.821Z,69.82
2022-09-06T03:01:05.880Z,68.74
2022-09-06T03:03:33.779Z,68.67
2022-09-06T03:06:01.593Z,68.00
2022-09-06T03:08:33.505Z,67.83
2022-09-06T03:11:02.684Z,71.00
2022-09-06T03:13:30.311Z,70.33
2022-09-06T03:15:59.591Z,74.71
2022-09-06T03:18:29.174Z,73.48
2022-09-06T03:20:57.158Z,75.00
2022-09-06T03:23:26.395Z,72.83
2022-09-06T03:25:54.631Z,70.51
2022-09-06T03:28:22.658Z,69.22
2022-09-06T03:30:51.747Z,67.59
2022-09-06T03:33:20.410Z,67.38
2022-09-06T03:35:55.561Z,68.93
2022-09-06T03:38:23.821Z,67.98
2022-09-06T03:40:52.846Z,68.04
2022-09-06T03:43:21.654Z,69.39
2022-09-06T03:45:52.238Z,68.70
2022-09-06T03:48:20.988Z,68.21
2022-09-06T03:50:50.489Z,68.54
2022-09-06T03:53:18.574Z,68.81
2022-09-06T03:55:50.592Z,69.63
2022-09-06T03:58:19.977Z,68.41
2022-09-06T04:00:47.895Z,67.10
2022-09-06T04:03:15.597Z,66.06
2022-09-06T04:05:46.579Z,70.93
2022-09-06T04:08:14.054Z,69.51
2022-09-06T04:10:41.811Z,70.92
2022-09-06T04:13:09.273Z,69.82
2022-09-06T04:15:37.265Z,68.79
2022-09-06T04:18:08.620Z,67.75
2022-09-06T04:20:36.619Z,67.88
2022-09-06T04:23:04.156Z,68.09
2022-09-06T04:25:31.863Z,70.40
2022-09-06T04:27:59.340Z,71.00
2022-09-06T04:30:26.736Z,70.63
2022-09-06T04:32:54.434Z,66.91
2022-09-06T04:35:21.810Z,68.51
2022-09-06T04:37:49.214Z,69.07
2022-09-06T04:40:17.083Z,68.62
2022-09-06T04:42:44.463Z,68.84
2022-09-06T04:45:12.170Z,70.38
2022-09-06T04:47:39.851Z,70.18
2022-09-06T04:50:07.746Z,70.25
2022-09-06T04:52:35.162Z,69.30
2022-09-06T04:55:03.152Z,68.07
2022-09-06T04:57:30.986Z,66.58
2022-09-06T04:59:58.368Z,68.86
2022-09-06T05:02:26.052Z,72.05
2022-09-06T05:04:54.884Z,70.29
2022-09-06T05:07:22.281Z,68.71
2022-09-06T05:09:49.970Z,68.20
2022-09-06T05:12:17.576Z,68.67
2022-09-06T05:14:44.994Z,69.83
2022-09-06T05:17:15.225Z,70.82
2022-09-06T05:19:43.180Z,70.98
2022-09-06T05:22:11.978Z,69.35
2022-09-06T05:24:39.825Z,69.60
2022-09-06T05:27:07.673Z,68.44
2022-09-06T05:29:35.233Z,67.95
2022-09-06T05:32:03.165Z,67.17
2022-09-06T05:34:30.683Z,67.42
2022-09-06T05:36:58.075Z,66.22
2022-09-06T05:39:25.725Z,65.17
2022-09-06T05:41:53.173Z,64.61
2022-09-06T05:44:20.595Z,62.78
2022-09-06T05:46:48.265Z,60.91
2022-09-06T05:49:15.768Z,59.71
2022-09-06T05:51:43.204Z,58.38
2022-09-06T05:54:11.745Z,57.53
2022-09-06T05:56:39.403Z,56.89
2022-09-06T05:59:06.771Z,57.09
2022-09-06T06:01:34.267Z,57.34
2022-09-06T06:04:04.648Z,56.40
2022-09-06T06:06:33.464Z,55.55
2022-09-06T06:09:00.982Z,55.66
2022-09-06T06:11:28.713Z,54.07
2022-09-06T06:13:56.132Z,53.67
2022-09-06T06:16:23.649Z,53.79
2022-09-06T06:18:52.767Z,53.86
2022-09-06T06:21:28.586Z,52.94
2022-09-06T06:24:06.402Z,53.09
2022-09-06T06:26:35.770Z,52.92
2022-09-06T06:29:05.707Z,51.47
2022-09-06T06:31:33.806Z,50.66
2022-09-06T06:34:03.760Z,50.84
2022-09-06T06:36:33.930Z,50.79
2022-09-06T06:39:02.441Z,51.09
2022-09-06T06:41:31.879Z,50.66
2022-09-06T06:44:01.362Z,50.02
2022-09-06T06:46:31.357Z,49.63
2022-09-06T06:48:58.782Z,49.67
2022-09-06T06:51:28.596Z,49.78
2022-09-06T06:54:00.000Z,49.51
2022-09-06T06:56:28.669Z,47.79
2022-09-06T06:58:58.259Z,48.19
2022-09-06T07:01:27.430Z,47.87
2022-09-06T07:03:55.567Z,46.86
2022-09-06T07:09:11.719Z,46.92
2022-09-06T07:11:39.113Z,47.72
2022-09-06T07:14:06.493Z,46.71
2022-09-06T07:16:34.191Z,46.41
2022-09-06T07:19:01.669Z,46.08
2022-09-06T07:24:06.548Z,45.94
2022-09-06T07:26:36.622Z,46.09
2022-09-06T07:29:05.413Z,45.89
2022-09-06T07:34:20.995Z,45.09
2022-09-06T07:36:48.680Z,44.26
2022-09-06T07:39:16.109Z,44.47
2022-09-06T07:41:43.743Z,44.24
2022-09-06T07:44:11.195Z,43.67
2022-09-06T07:46:38.948Z,43.82
2022-09-06T07:49:06.840Z,43.48
2022-09-06T07:51:34.285Z,43.96
2022-09-06T07:54:26.289Z,43.75
2022-09-06T07:56:49.801Z,43.61
2022-09-06T07:59:17.252Z,42.46
2022-09-06T08:01:44.737Z,41.76
2022-09-06T08:04:14.063Z,40.94
2022-09-06T08:09:31.303Z,40.03
2022-09-06T08:11:58.901Z,39.70
2022-09-06T08:14:26.319Z,39.20
2022-09-06T08:16:53.977Z,38.39
2022-09-06T08:19:21.375Z,37.25
2022-09-06T08:21:49.709Z,36.20
2022-09-06T08:24:17.361Z,36.73
2022-09-06T08:26:44.811Z,35.96
2022-09-06T08:29:13.120Z,35.03
2022-09-06T08:31:43.293Z,33.95
2022-09-06T08:34:12.773Z,33.28
2022-09-06T08:36:40.745Z,32.33
2022-09-06T08:39:09.982Z,33.36
2022-09-06T08:41:56.948Z,33.34
2022-09-06T08:44:56.004Z,32.55
2022-09-06T08:47:24.681Z,34.09
2022-09-06T08:50:04.258Z,33.79
2022-09-06T08:52:49.765Z,33.58
2022-09-06T08:55:30.820Z,34.06
2022-09-06T08:58:35.829Z,34.60
2022-09-06T09:01:05.650Z,36.07
2022-09-06T09:03:38.159Z,35.02
2022-09-06T09:06:07.459Z,34.82
2022-09-06T09:09:08.013Z,35.32
2022-09-06T09:11:36.368Z,34.50
2022-09-06T09:14:17.430Z,35.14
2022-09-06T09:16:45.179Z,34.31
2022-09-06T09:19:13.567Z,34.45
2022-09-06T09:21:41.013Z,34.72
2022-09-06T09:24:10.446Z,34.48
2022-09-06T09:26:51.220Z,33.30
2022-09-06T09:29:22.755Z,33.88
2022-09-06T09:31:54.669Z,34.79
2022-09-06T09:34:39.879Z,33.74
2022-09-06T09:40:24.285Z,33.77
2022-09-06T09:42:52.870Z,33.82
2022-09-06T09:45:23.275Z,33.33
2022-09-06T09:47:50.663Z,31.98
2022-09-06T09:50:30.327Z,31.74
2022-09-06T09:53:08.172Z,32.57
2022-09-06T09:55:35.887Z,32.62
2022-09-06T09:58:04.046Z,32.36
2022-09-06T10:00:34.114Z,32.40
2022-09-06T10:03:12.490Z,31.16
2022-09-06T10:05:40.409Z,30.95
2022-09-06T10:08:12.629Z,30.50
2022-09-06T10:10:43.048Z,30.74
2022-09-06T10:13:19.366Z,30.29
2022-09-06T10:15:47.503Z,30.40
2022-09-06T10:18:34.807Z,30.39
2022-09-06T10:21:14.700Z,30.65
2022-09-06T10:26:38.447Z,30.13
2022-09-06T10:29:09.654Z,30.26
2022-09-06T10:31:39.835Z,29.48
2022-09-06T10:34:16.818Z,28.76
2022-09-06T10:37:14.340Z,29.43
2022-09-06T10:39:48.408Z,29.90
2022-09-06T10:42:34.534Z,29.22
2022-09-06T10:45:20.689Z,29.16
2022-09-06T10:47:57.272Z,30.20
2022-09-06T10:50:36.412Z,30.49
2022-09-06T10:53:09.364Z,30.25
2022-09-06T10:55:40.341Z,29.87
2022-09-06T10:58:19.261Z,30.61
2022-09-06T11:00:49.575Z,30.49
2022-09-06T11:06:11.511Z,29.70
2022-09-06T11:08:58.291Z,29.73
2022-09-06T11:11:49.405Z,30.38
2022-09-06T11:14:18.036Z,30.66
2022-09-06T11:16:49.665Z,28.70
2022-09-06T11:19:24.029Z,29.10
2022-09-06T11:22:10.318Z,28.89
2022-09-06T11:25:12.539Z,29.32
2022-09-06T11:27:42.595Z,29.58
2022-09-06T11:30:14.905Z,28.45
2022-09-06T11:32:49.744Z,27.73
2022-09-06T11:35:37.385Z,27.65
2022-09-06T11:38:14.147Z,28.14
2022-09-06T11:40:44.590Z,32.09
2022-09-06T11:43:14.243Z,32.25
2022-09-06T11:45:53.021Z,31.11
2022-09-06T11:48:23.585Z,30.18
2022-09-06T11:50:54.026Z,29.82
2022-09-06T11:53:23.079Z,31.04
2022-09-06T11:56:05.166Z,31.15
2022-09-06T11:58:53.982Z,31.28
2022-09-06T12:01:21.269Z,30.62
2022-09-06T12:04:05.864Z,30.41
2022-09-06T12:06:43.782Z,29.49
2022-09-06T12:09:46.893Z,29.95
2022-09-06T12:12:48.143Z,29.39
2022-09-06T12:15:26.062Z,29.36
2022-09-06T12:17:53.885Z,29.48
2022-09-06T12:20:51.306Z,29.04
2022-09-06T12:23:37.095Z,29.01
2022-09-06T12:26:09.187Z,29.14
2022-09-06T12:28:52.740Z,29.10
2022-09-06T12:31:26.412Z,28.27
2022-09-06T12:33:54.932Z,29.31
2022-09-06T12:36:29.825Z,29.40
2022-09-06T12:38:58.663Z,30.94
2022-09-06T12:41:28.548Z,30.17
2022-09-06T12:43:56.320Z,29.28
2022-09-06T12:46:25.650Z,30.10
2022-09-06T12:49:06.767Z,30.21
2022-09-06T12:51:35.139Z,30.39
2022-09-06T12:54:05.993Z,29.19
2022-09-06T12:56:37.321Z,30.21
2022-09-06T12:59:32.427Z,31.51
2022-09-06T13:02:02.781Z,31.47
2022-09-06T13:04:39.901Z,31.52
2022-09-06T13:07:09.945Z,32.35
2022-09-06T13:09:38.206Z,32.58
2022-09-06T13:12:10.734Z,32.03
2022-09-06T13:14:38.503Z,31.27
2022-09-06T13:17:05.950Z,30.91
2022-09-06T13:19:38.437Z,31.51
2022-09-06T13:22:11.182Z,31.50
2022-09-06T13:24:47.687Z,30.39
2022-09-06T13:27:30.739Z,31.77
2022-09-06T13:30:09.187Z,30.81
2022-09-06T13:32:45.871Z,32.28
2022-09-06T13:35:23.923Z,31.96
2022-09-06T13:37:51.772Z,31.95
2022-09-06T13:41:07.107Z,31.11
2022-09-06T13:43:33.443Z,31.27
2022-09-06T13:46:06.367Z,31.55
2022-09-06T13:48:34.655Z,31.99
2022-09-06T13:51:06.903Z,32.81
2022-09-06T13:53:34.893Z,33.96
2022-09-06T13:56:03.121Z,33.49
2022-09-06T13:58:30.816Z,33.15
2022-09-06T14:00:58.635Z,32.84
2022-09-06T14:03:31.665Z,31.88
2022-09-06T14:06:00.307Z,31.89
2022-09-06T14:08:38.854Z,32.26
2022-09-06T14:11:16.256Z,33.57
2022-09-06T14:13:44.269Z,33.97
2022-09-06T14:16:12.634Z,33.89
2022-09-06T14:18:40.523Z,33.70
2022-09-06T14:21:08.214Z,33.97
2022-09-06T14:23:35.605Z,34.10
2022-09-06T14:26:04.499Z,34.27
2022-09-06T14:28:33.843Z,34.36
2022-09-06T14:31:15.803Z,35.13
2022-09-06T14:33:43.621Z,34.84
2022-09-06T14:36:13.223Z,35.68
2022-09-06T14:38:41.850Z,34.80
2022-09-06T14:41:09.858Z,35.52
2022-09-06T14:43:37.820Z,35.38
2022-09-06T14:46:07.522Z,35.68
2022-09-06T14:48:38.128Z,35.53
2022-09-06T14:51:19.211Z,35.58
2022-09-06T14:53:47.227Z,35.70
2022-09-06T14:56:15.266Z,36.12
2022-09-06T14:58:43.467Z,36.14
2022-09-06T15:01:22.317Z,36.92
2022-09-06T15:03:52.065Z,38.17
2022-09-06T15:06:21.312Z,38.61
2022-09-06T15:08:49.740Z,40.87
2022-09-06T15:11:36.659Z,43.77
2022-09-06T15:14:08.029Z,50.20
2022-09-06T15:16:36.221Z,60.23
2022-09-06T15:19:04.144Z,65.91
2022-09-06T15:21:32.435Z,73.77
2022-09-06T15:24:01.879Z,78.23
2022-09-06T15:26:30.062Z,77.80
2022-09-06T15:28:57.431Z,80.68
2022-09-06T15:31:25.246Z,74.29
2022-09-06T15:33:53.037Z,70.24
2022-09-06T15:36:21.890Z,68.22
2022-09-06T15:38:50.199Z,65.45
2022-09-06T15:41:20.154Z,67.87
2022-09-06T15:43:49.168Z,68.35
2022-09-06T15:46:21.292Z,66.65
2022-09-06T15:48:50.825Z,69.92
2022-09-06T15:51:19.988Z,70.76
2022-09-06T15:53:47.810Z,71.61
2022-09-06T15:56:16.703Z,70.26
2022-09-06T15:58:47.749Z,67.18
2022-09-06T16:01:20.619Z,64.58
2022-09-06T16:03:50.529Z,66.81
2022-09-06T16:06:26.253Z,64.84
2022-09-06T16:09:09.378Z,65.06
2022-09-06T16:11:37.134Z,66.16
2022-09-06T16:14:06.831Z,65.37
2022-09-06T16:16:35.269Z,66.99
2022-09-06T16:19:03.376Z,63.37
2022-09-06T16:21:32.442Z,64.04
2022-09-06T16:24:01.860Z,65.72
2022-09-06T16:26:34.858Z,68.01
2022-09-06T16:29:04.218Z,69.11
2022-09-06T16:31:36.366Z,69.06
2022-09-06T16:34:07.846Z,68.15
2022-09-06T16:36:35.412Z,67.11
2022-09-06T16:39:04.090Z,67.37
2022-09-06T16:41:40.574Z,67.14
2022-09-06T16:44:09.095Z,66.97
2022-09-06T16:46:36.967Z,69.24
2022-09-06T16:49:04.654Z,69.23
2022-09-06T16:51:32.171Z,68.55
2022-09-06T16:54:00.175Z,66.76
2022-09-06T16:56:33.326Z,73.58
2022-09-06T16:59:04.558Z,73.74
2022-09-06T17:01:33.149Z,74.62
2022-09-06T17:04:04.375Z,73.77
2022-09-06T17:06:33.205Z,76.80
2022-09-06T17:09:01.092Z,80.17
2022-09-06T17:11:29.226Z,76.92
2022-09-06T17:13:57.789Z,77.18
2022-09-06T17:16:44.640Z,79.71
2022-09-06T17:19:12.871Z,75.99
2022-09-06T17:21:40.859Z,71.47
2022-09-06T17:24:08.939Z,70.60
2022-09-06T17:26:38.024Z,76.90
2022-09-06T17:29:06.552Z,76.83
2022-09-06T17:31:35.966Z,75.37
2022-09-06T17:34:04.081Z,74.21
2022-09-06T17:36:33.407Z,71.37
2022-09-06T17:39:03.743Z,70.90
2022-09-06T17:41:42.883Z,70.95
2022-09-06T17:44:12.985Z,72.18
2022-09-06T17:46:57.097Z,72.99
2022-09-06T17:49:30.301Z,72.55
2022-09-06T17:51:58.507Z,72.72
2022-09-06T17:54:26.185Z,72.67
2022-09-06T17:56:54.108Z,72.73
2022-09-06T17:59:21.811Z,71.12
2022-09-06T18:01:49.499Z,70.94
2022-09-06T18:04:17.881Z,71.84
2022-09-06T18:06:47.027Z,71.96
2022-09-06T18:09:17.533Z,70.95
2022-09-06T18:11:48.533Z,71.22
2022-09-06T18:14:18.489Z,71.04
2022-09-06T18:16:49.299Z,70.61
2022-09-06T18:19:18.176Z,70.67
2022-09-06T18:21:47.082Z,70.65
2022-09-06T18:24:15.549Z,70.15
2022-09-06T18:26:43.453Z,70.18
2022-09-06T18:29:13.484Z,72.36
2022-09-06T18:31:41.911Z,73.51
2022-09-06T18:34:10.441Z,76.54
2022-09-06T18:36:38.955Z,73.88
2022-09-06T18:39:06.686Z,76.92
2022-09-06T18:41:53.390Z,76.08
2022-09-06T18:44:21.908Z,73.17
2022-09-06T18:46:50.303Z,73.55
2022-09-06T18:49:18.753Z,72.34
2022-09-06T18:51:47.098Z,71.76
2022-09-06T18:54:14.999Z,73.35
2022-09-06T18:56:45.117Z,72.16
2022-09-06T18:59:14.181Z,71.79
2022-09-06T19:01:43.390Z,71.79
2022-09-06T19:04:11.982Z,71.03
2022-09-06T19:06:41.551Z,70.50
2022-09-06T19:09:13.283Z,69.91
2022-09-06T19:11:45.964Z,69.60
2022-09-06T19:14:14.059Z,69.60
2022-09-06T19:16:42.559Z,69.36
2022-09-06T19:19:12.037Z,71.14
2022-09-06T19:21:42.323Z,71.39
2022-09-06T19:24:12.439Z,70.11
2022-09-06T19:26:42.058Z,69.79
2022-09-06T19:29:15.502Z,71.69
2022-09-06T19:31:44.429Z,70.09
2022-09-06T19:34:13.964Z,70.63
2022-09-06T19:36:42.043Z,69.98
2022-09-06T19:39:12.541Z,69.20
2022-09-06T19:41:43.017Z,69.75
2022-09-06T19:44:11.782Z,71.47
2022-09-06T19:46:45.760Z,71.49
2022-09-06T19:49:19.509Z,70.97
2022-09-06T19:51:49.203Z,73.49
2022-09-06T19:54:17.942Z,74.31
2022-09-06T19:56:46.395Z,74.34
2022-09-06T19:59:14.981Z,75.17
2022-09-06T20:01:44.747Z,74.34
2022-09-06T20:04:14.362Z,72.92
2022-09-06T20:06:42.318Z,71.69
2022-09-06T20:09:10.754Z,71.01
2022-09-06T20:11:41.622Z,70.49
2022-09-06T20:14:12.592Z,70.32
2022-09-06T20:16:42.307Z,70.47
2022-09-06T20:19:12.348Z,69.68
2022-09-06T20:21:40.598Z,69.39
2022-09-06T20:24:08.915Z,70.17
2022-09-06T20:26:36.646Z,70.64
2022-09-06T20:29:05.360Z,69.69
2022-09-06T20:31:33.923Z,70.42
2022-09-06T20:34:02.806Z,69.78
2022-09-06T20:36:31.156Z,71.97
2022-09-06T20:38:59.044Z,72.74
2022-09-06T20:41:27.283Z,72.15
2022-09-06T20:43:56.697Z,72.80
2022-09-06T20:46:30.456Z,73.01
2022-09-06T20:49:00.137Z,73.65
2022-09-06T20:51:28.057Z,72.66
2022-09-06T20:54:00.855Z,73.92
2022-09-06T20:56:34.537Z,73.07
2022-09-06T20:59:05.862Z,72.88
2022-09-06T21:01:37.050Z,73.97
2022-09-06T21:04:06.692Z,74.53
2022-09-06T21:06:36.689Z,74.54
2022-09-06T21:09:08.897Z,75.78
2022-09-06T21:11:36.714Z,77.26
2022-09-06T21:14:04.821Z,74.82
2022-09-06T21:16:32.632Z,73.58
2022-09-06T21:19:05.464Z,73.02
2022-09-06T21:21:34.552Z,74.68
2022-09-06T21:24:03.942Z,75.38
2022-09-06T21:26:31.640Z,77.54
2022-09-06T21:28:59.460Z,74.75
2022-09-06T21:31:32.336Z,75.19
2022-09-06T21:34:03.295Z,76.30
2022-09-06T21:36:33.980Z,74.59
2022-09-06T21:39:04.821Z,73.17
2022-09-06T21:41:35.041Z,73.38
2022-09-06T21:44:03.442Z,73.94
2022-09-06T21:46:33.940Z,73.02
2022-09-06T21:49:12.943Z,71.99
2022-09-06T21:51:40.899Z,72.35
2022-09-06T21:54:09.140Z,71.48
2022-09-06T21:56:38.217Z,74.20
2022-09-06T21:59:06.304Z,76.99
2022-09-06T22:01:35.669Z,74.90
2022-09-06T22:04:04.327Z,73.71
2022-09-06T22:06:33.418Z,71.51
2022-09-06T22:09:05.258Z,72.71
2022-09-06T22:11:34.081Z,72.19
2022-09-06T22:14:03.997Z,73.10
2022-09-06T22:16:33.853Z,72.00
2022-09-06T22:19:01.879Z,71.59
2022-09-06T22:21:29.333Z,70.31
2022-09-06T22:23:58.660Z,71.16
2022-09-06T22:26:28.403Z,71.70
2022-09-06T22:29:00.287Z,72.21
2022-09-06T22:31:29.797Z,72.01
2022-09-06T22:33:57.519Z,71.66
2022-09-06T22:36:26.141Z,71.00
2022-09-06T22:38:57.578Z,74.07
2022-09-06T22:41:27.109Z,75.88
2022-09-06T22:43:55.021Z,76.37
2022-09-06T22:46:23.085Z,75.45
2022-09-06T22:48:50.627Z,74.81
2022-09-06T22:51:18.467Z,76.17
2022-09-06T22:53:45.875Z,79.84
2022-09-06T22:56:13.306Z,80.25
2022-09-06T22:58:40.990Z,80.55
2022-09-06T23:01:10.508Z,81.00
2022-09-06T23:03:38.471Z,79.51
2022-09-06T23:06:06.374Z,79.25
2022-09-06T23:08:35.383Z,77.88
2022-09-06T23:11:08.403Z,75.90
2022-09-06T23:13:36.204Z,74.37
2022-09-06T23:16:05.928Z,74.31
2022-09-06T23:18:33.917Z,73.52
2022-09-06T23:21:06.485Z,73.18
2022-09-06T23:23:34.936Z,73.86
2022-09-06T23:26:08.147Z,73.41
2022-09-06T23:28:36.200Z,72.32
2022-09-06T23:31:05.534Z,73.73
2022-09-06T23:33:37.385Z,75.73
2022-09-06T23:36:06.420Z,73.76
2022-09-06T23:38:35.123Z,73.45
2022-09-06T23:41:02.977Z,77.16
2022-09-06T23:43:31.159Z,75.12
2022-09-06T23:45:58.836Z,73.08
2022-09-06T23:48:26.304Z,73.07
2022-09-06T23:50:54.165Z,72.42
2022-09-06T23:53:21.616Z,72.40
2022-09-06T23:55:49.025Z,74.04
2022-09-06T23:58:16.691Z,73.60
